Time;durP1;ratioP1;P1;durP2;ratioP2;P2;SDS_P1;SDS_P2;PMS_P1;PMS_P2;Temp;Humidity;BMP_temperature;BMP_pressure;BME280_temperature;BME280_humidity;BME280_pressure;Samples;Min_cycle;Max_cycle;Signal;HPM_P1;HPM_P2
2023/06/26 00:02:12;;;;;;;;;;;22.60;99.90;;;;;;5015617;28;20356;-81
2023/06/26 00:04:37;;;;;;;;;;;22.60;99.90;;;;;;4996150;28;19933;-81
2023/06/26 00:07:06;;;;;;;;;;;22.60;99.90;;;;;;4984121;28;19996;-81
2023/06/26 00:09:32;;;;;;;;;;;22.60;99.90;;;;;;4981713;28;19992;-81
2023/06/26 00:11:59;;;;;;;;;;;22.50;99.90;;;;;;4997593;28;19975;-81
2023/06/26 00:14:25;;;;;;;;;;;22.50;99.90;;;;;;4998325;28;19968;-81
2023/06/26 00:16:51;;;;;;;;;;;22.50;99.90;;;;;;4996641;28;19930;-81
2023/06/26 00:19:17;;;;;;;;;;;22.40;99.90;;;;;;4997373;28;19933;-81
2023/06/26 00:21:46;;;;;;;;;;;22.40;99.90;;;;;;4996631;28;19971;-81
2023/06/26 00:24:12;;;;;;;;;;;22.40;99.90;;;;;;5012522;28;19925;-81
2023/06/26 00:26:38;;;;;;;;;;;22.40;99.90;;;;;;4993992;28;19929;-81
2023/06/26 00:29:04;;;;;;;;;;;22.40;99.90;;;;;;4981171;28;19932;-81
2023/06/26 00:31:30;;;;;;;;;;;22.40;99.90;;;;;;5014065;28;20365;-81
2023/06/26 00:33:55;;;;;;;;;;;22.30;99.90;;;;;;5011433;28;19989;-81
2023/06/26 00:36:23;;;;;;;;;;;22.30;99.90;;;;;;4998430;28;19959;-81
2023/06/26 00:38:52;;;;;;;;;;;22.30;99.90;;;;;;4997751;28;21041;-81
2023/06/26 00:41:18;;;;;;;;;;;22.30;99.90;;;;;;4999544;28;19940;-81
2023/06/26 00:43:43;;;;;;;;;;;22.30;99.90;;;;;;5001304;28;19929;-81
2023/06/26 00:46:10;;;;;;;;;;;22.30;99.90;;;;;;5018006;28;19980;-81
2023/06/26 00:48:36;;;;;;;;;;;22.20;99.90;;;;;;5004164;28;19925;-81
2023/06/26 00:51:02;;;;;;;;;;;22.20;99.90;;;;;;5021253;28;19933;-81
2023/06/26 00:53:27;;;;;;;;;;;22.20;99.90;;;;;;4991971;28;19940;-82
2023/06/26 00:55:53;;;;;;;;;;;22.20;99.90;;;;;;5020586;28;19932;-80
2023/06/26 00:58:20;;;;;;;;;;;22.20;99.90;;;;;;5008235;28;19947;-81
2023/06/26 01:00:45;;;;;;;;;;;22.20;99.90;;;;;;5008698;28;19932;-81
2023/06/26 01:03:12;;;;;;;;;;;22.20;99.90;;;;;;4992974;28;19929;-81
2023/06/26 01:05:38;;;;;;;;;;;22.10;99.90;;;;;;5008227;28;20014;-81
2023/06/26 01:08:04;;;;;;;;;;;22.10;99.90;;;;;;4991349;28;19925;-81
2023/06/26 01:10:30;;;;;;;;;;;22.00;99.90;;;;;;5015752;28;19932;-81
2023/06/26 01:12:57;;;;;;;;;;;22.00;99.90;;;;;;5004678;28;19988;-82
2023/06/26 01:15:22;;;;;;;;;;;22.00;99.90;;;;;;5008988;28;19932;-82
2023/06/26 01:17:49;;;;;;;;;;;21.90;99.90;;;;;;4991088;28;19929;-81
2023/06/26 01:20:15;;;;;;;;;;;21.90;99.90;;;;;;5008698;28;19950;-81
2023/06/26 01:22:44;;;;;;;;;;;21.90;99.90;;;;;;5043014;28;19929;-82
2023/06/26 01:25:18;;;;;;;;;;;21.80;99.90;;;;;;5008056;28;19979;-82
2023/06/26 01:27:48;;;;;;;;;;;21.80;99.90;;;;;;5024693;28;19925;-82
2023/06/26 01:30:14;;;;;;;;;;;21.80;99.90;;;;;;5007987;28;19928;-81
2023/06/26 01:32:40;;;;;;;;;;;21.80;99.90;;;;;;4992384;28;19937;-81
2023/06/26 01:35:06;;;;;;;;;;;21.80;99.90;;;;;;5008099;28;19929;-81
2023/06/26 01:37:32;;;;;;;;;;;21.70;99.90;;;;;;5007687;28;19969;-82
2023/06/26 01:39:58;;;;;;;;;;;21.70;99.90;;;;;;4990837;28;19932;-82
2023/06/26 01:42:23;;;;;;;;;;;21.60;99.90;;;;;;5008114;28;19983;-82
2023/06/26 01:44:50;;;;;;;;;;;21.60;99.90;;;;;;5004988;28;19925;-81
2023/06/26 01:47:17;;;;;;;;;;;21.60;99.90;;;;;;5003782;28;19925;-81
2023/06/26 01:50:02;;;;;;;;;;;21.60;99.90;;;;;;4985496;28;19929;-81
2023/06/26 01:52:48;;;;;;;;;;;21.50;99.90;;;;;;5003460;28;19929;-82
2023/06/26 01:55:43;;;;;;;;;;;21.50;99.90;;;;;;5022994;28;19941;-81
2023/06/26 01:58:08;;;;;;;;;;;21.40;99.90;;;;;;5005793;28;20008;-81
2023/06/26 02:00:34;;;;;;;;;;;21.40;99.90;;;;;;5015280;28;19968;-81
2023/06/26 02:03:00;;;;;;;;;;;21.40;99.90;;;;;;4984806;28;19933;-82
2023/06/26 02:05:25;;;;;;;;;;;21.30;99.90;;;;;;5001592;28;20459;-81
2023/06/26 02:07:51;;;;;;;;;;;21.30;99.90;;;;;;5002757;28;20294;-82
2023/06/26 02:10:17;;;;;;;;;;;21.30;99.90;;;;;;4985563;28;19925;-82
2023/06/26 02:12:42;;;;;;;;;;;21.40;99.90;;;;;;5004151;28;19925;-81
2023/06/26 02:15:08;;;;;;;;;;;21.30;99.90;;;;;;5001924;28;20487;-81
2023/06/26 02:17:34;;;;;;;;;;;21.30;99.90;;;;;;4986913;28;19940;-81
2023/06/26 02:19:59;;;;;;;;;;;21.30;99.90;;;;;;5035058;28;19929;-81
2023/06/26 02:22:25;;;;;;;;;;;21.30;99.90;;;;;;5016914;28;19929;-81
2023/06/26 02:24:51;;;;;;;;;;;21.30;99.90;;;;;;5018223;28;20020;-81
2023/06/26 02:27:16;;;;;;;;;;;21.30;99.90;;;;;;5001601;28;19925;-81
2023/06/26 02:29:42;;;;;;;;;;;21.20;99.90;;;;;;4983208;28;19940;-81
2023/06/26 02:32:08;;;;;;;;;;;21.20;99.90;;;;;;5001961;28;19968;-82
2023/06/26 02:34:34;;;;;;;;;;;21.10;99.90;;;;;;5003030;28;19936;-81
2023/06/26 02:37:00;;;;;;;;;;;21.10;99.90;;;;;;5001542;28;19947;-82
2023/06/26 02:39:26;;;;;;;;;;;21.00;99.90;;;;;;5002286;28;20428;-81
2023/06/26 02:41:51;;;;;;;;;;;21.00;99.90;;;;;;5014197;28;19995;-81
2023/06/26 02:44:17;;;;;;;;;;;21.00;99.90;;;;;;5018535;28;19988;-82
2023/06/26 02:46:43;;;;;;;;;;;20.90;99.90;;;;;;5001604;28;20372;-82
2023/06/26 02:49:08;;;;;;;;;;;20.90;99.90;;;;;;5002985;28;19929;-82
2023/06/26 02:51:34;;;;;;;;;;;20.90;99.90;;;;;;4998354;28;19933;-81
2023/06/26 02:54:00;;;;;;;;;;;20.90;99.90;;;;;;5016950;28;19929;-81
2023/06/26 02:56:28;;;;;;;;;;;20.90;99.90;;;;;;4999024;28;20674;-81
2023/06/26 02:58:54;;;;;;;;;;;20.90;99.90;;;;;;4999998;28;19967;-81
2023/06/26 03:01:20;;;;;;;;;;;20.90;99.90;;;;;;5001523;28;19964;-81
2023/06/26 03:03:46;;;;;;;;;;;21.00;99.90;;;;;;5034564;28;19971;-81
2023/06/26 03:06:12;;;;;;;;;;;21.00;99.90;;;;;;5036297;28;19940;-81
2023/06/26 03:08:41;;;;;;;;;;;20.90;99.90;;;;;;5016168;28;19929;-81
2023/06/26 03:11:07;;;;;;;;;;;20.90;99.90;;;;;;5000056;28;19925;-81
2023/06/26 03:13:34;;;;;;;;;;;20.90;99.90;;;;;;5003836;28;19929;-81
2023/06/26 03:16:00;;;;;;;;;;;20.90;99.90;;;;;;5019887;28;19995;-81
2023/06/26 03:18:25;;;;;;;;;;;20.90;99.90;;;;;;5001632;28;19941;-81
2023/06/26 03:20:53;;;;;;;;;;;20.90;99.90;;;;;;5017948;28;19926;-81
2023/06/26 03:23:20;;;;;;;;;;;20.90;99.90;;;;;;5016857;28;20380;-81
2023/06/26 03:25:45;;;;;;;;;;;20.90;99.90;;;;;;5001668;28;19925;-81
2023/06/26 03:28:11;;;;;;;;;;;20.80;99.90;;;;;;5001859;28;19943;-82
2023/06/26 03:30:36;;;;;;;;;;;20.80;99.90;;;;;;5001150;28;20372;-81
2023/06/26 03:33:02;;;;;;;;;;;20.80;99.90;;;;;;5018353;28;19991;-81
2023/06/26 03:35:28;;;;;;;;;;;20.70;99.90;;;;;;5000577;28;19929;-81
2023/06/26 03:37:53;;;;;;;;;;;20.70;99.90;;;;;;4968028;28;20333;-82
2023/06/26 03:40:19;;;;;;;;;;;20.70;99.90;;;;;;4980096;28;19964;-82
2023/06/26 03:42:44;;;;;;;;;;;20.70;99.90;;;;;;4961572;28;19930;-82
2023/06/26 03:45:10;;;;;;;;;;;20.80;99.90;;;;;;4975462;28;19973;-81
2023/06/26 03:47:35;;;;;;;;;;;20.80;99.90;;;;;;4977584;28;19933;-81
2023/06/26 03:50:01;;;;;;;;;;;20.80;99.90;;;;;;4978799;28;19929;-81
2023/06/26 03:52:27;;;;;;;;;;;20.90;99.90;;;;;;4963287;28;19930;-81
2023/06/26 03:54:52;;;;;;;;;;;21.00;99.90;;;;;;4961252;28;19933;-81
2023/06/26 03:57:18;;;;;;;;;;;21.10;99.90;;;;;;4995722;28;19941;-81
2023/06/26 03:59:43;;;;;;;;;;;21.10;99.90;;;;;;4960772;28;19930;-81
2023/06/26 04:02:09;;;;;;;;;;;21.20;99.90;;;;;;4977788;28;20001;-81
2023/06/26 04:04:34;;;;;;;;;;;21.30;99.90;;;;;;4960975;28;19930;-81
2023/06/26 04:07:00;;;;;;;;;;;21.40;99.90;;;;;;4978712;28;19972;-82
2023/06/26 04:09:26;;;;;;;;;;;21.40;99.90;;;;;;4962239;28;20390;-81
2023/06/26 04:11:51;;;;;;;;;;;21.50;99.90;;;;;;4993928;28;19992;-81
2023/06/26 04:14:17;;;;;;;;;;;21.50;99.90;;;;;;4963198;28;19968;-81
2023/06/26 04:16:43;;;;;;;;;;;21.60;99.90;;;;;;4993980;28;19926;-82
2023/06/26 04:19:10;;;;;;;;;;;21.60;99.90;;;;;;4979449;28;19926;-82
2023/06/26 04:21:35;;;;;;;;;;;21.60;99.90;;;;;;4963448;28;19926;-81
2023/06/26 04:24:01;;;;;;;;;;;21.60;99.90;;;;;;4984649;28;20297;-82
2023/06/26 04:26:27;;;;;;;;;;;21.60;99.90;;;;;;5021758;28;20020;-82
2023/06/26 04:28:53;;;;;;;;;;;21.60;99.90;;;;;;4967152;28;19926;-81
2023/06/26 04:31:19;;;;;;;;;;;21.70;99.90;;;;;;4985437;28;20463;-82
2023/06/26 04:33:44;;;;;;;;;;;21.80;99.90;;;;;;4986571;28;19926;-82
2023/06/26 04:36:11;;;;;;;;;;;21.70;99.90;;;;;;4986805;28;19997;-82
2023/06/26 04:38:36;;;;;;;;;;;21.70;99.90;;;;;;5002422;28;19926;-82
2023/06/26 04:41:02;;;;;;;;;;;21.70;99.90;;;;;;4985169;28;19936;-83
2023/06/26 04:43:28;;;;;;;;;;;21.70;99.90;;;;;;5002204;28;19936;-82
2023/06/26 04:45:53;;;;;;;;;;;21.60;99.90;;;;;;4996681;28;19934;-82
2023/06/26 04:48:19;;;;;;;;;;;21.60;99.90;;;;;;4967106;28;19937;-81
2023/06/26 04:50:52;;;;;;;;;;;21.60;99.90;;;;;;4967885;28;19981;-82
2023/06/26 04:53:18;;;;;;;;;;;21.60;99.90;;;;;;4981354;28;19983;-85
2023/06/26 04:55:43;;;;;;;;;;;21.70;99.90;;;;;;4991418;28;19981;-81
2023/06/26 04:58:09;;;;;;;;;;;21.80;99.90;;;;;;4979487;28;19926;-85
2023/06/26 05:00:35;;;;;;;;;;;21.80;99.90;;;;;;4981301;28;19926;-83
2023/06/26 05:03:01;;;;;;;;;;;21.80;99.90;;;;;;4964465;28;19937;-84
2023/06/26 05:05:28;;;;;;;;;;;21.80;99.90;;;;;;4998115;28;19930;-85
2023/06/26 05:07:54;;;;;;;;;;;21.70;99.90;;;;;;4977171;28;19933;-84
2023/06/26 05:10:19;;;;;;;;;;;21.60;99.90;;;;;;4981682;28;20391;-84
2023/06/26 05:12:45;;;;;;;;;;;21.60;99.90;;;;;;4997475;28;19936;-84
2023/06/26 05:15:10;;;;;;;;;;;21.50;99.90;;;;;;5002508;28;19932;-85
2023/06/26 05:17:36;;;;;;;;;;;21.40;99.90;;;;;;4982194;28;19934;-83
2023/06/26 05:20:03;;;;;;;;;;;21.50;99.90;;;;;;4961927;28;19932;-84
2023/06/26 05:22:29;;;;;;;;;;;21.50;99.90;;;;;;4981335;28;19940;-82
2023/06/26 05:24:55;;;;;;;;;;;21.50;99.90;;;;;;4959630;28;19961;-82
2023/06/26 05:27:21;;;;;;;;;;;21.70;99.90;;;;;;5002072;28;19926;-85
2023/06/26 05:29:48;;;;;;;;;;;22.10;99.90;;;;;;4984349;28;19948;-82
2023/06/26 05:32:15;;;;;;;;;;;22.60;99.90;;;;;;4999127;28;19926;-82
2023/06/26 05:34:41;;;;;;;;;;;22.70;99.90;;;;;;4980968;28;19933;-82
2023/06/26 05:37:07;;;;;;;;;;;22.50;99.90;;;;;;4987208;28;19929;-84
2023/06/26 05:39:32;;;;;;;;;;;22.30;99.90;;;;;;4963201;28;19977;-82
2023/06/26 05:41:58;;;;;;;;;;;22.10;99.90;;;;;;4984487;28;20312;-83
2023/06/26 05:44:24;;;;;;;;;;;21.80;99.90;;;;;;4983124;28;19940;-81
2023/06/26 05:46:49;;;;;;;;;;;21.80;99.90;;;;;;4965855;28;20020;-82
2023/06/26 05:49:15;;;;;;;;;;;21.90;99.90;;;;;;4977695;28;19930;-85
2023/06/26 05:51:40;;;;;;;;;;;22.20;99.90;;;;;;4985033;28;19929;-83
2023/06/26 05:54:06;;;;;;;;;;;22.50;99.90;;;;;;4997777;28;20013;-84
2023/06/26 05:56:32;;;;;;;;;;;22.60;99.90;;;;;;4995767;28;19926;-83
2023/06/26 05:58:58;;;;;;;;;;;22.50;99.90;;;;;;4964182;28;19996;-85
2023/06/26 06:01:24;;;;;;;;;;;22.60;99.90;;;;;;4979448;28;19964;-83
2023/06/26 06:03:49;;;;;;;;;;;22.80;99.90;;;;;;4979331;28;19980;-82
2023/06/26 06:06:15;;;;;;;;;;;22.90;99.90;;;;;;4979427;28;19926;-83
2023/06/26 06:08:41;;;;;;;;;;;23.00;99.90;;;;;;4963044;28;19926;-83
2023/06/26 06:11:07;;;;;;;;;;;23.10;99.90;;;;;;4976642;28;19989;-83
2023/06/26 06:13:33;;;;;;;;;;;23.20;99.90;;;;;;4998275;28;19977;-82
2023/06/26 06:15:58;;;;;;;;;;;23.20;99.90;;;;;;4982432;28;19930;-84
2023/06/26 06:18:24;;;;;;;;;;;23.60;99.90;;;;;;4968037;28;19972;-82
2023/06/26 06:20:49;;;;;;;;;;;24.10;99.90;;;;;;4981361;28;19933;-83
2023/06/26 06:23:15;;;;;;;;;;;24.60;99.90;;;;;;4964124;28;19937;-82
2023/06/26 06:25:41;;;;;;;;;;;25.00;99.90;;;;;;4959666;28;20021;-84
2023/06/26 06:28:06;;;;;;;;;;;25.40;99.90;;;;;;4962945;28;20012;-84
2023/06/26 06:30:32;;;;;;;;;;;25.80;99.90;;;;;;4979406;28;19936;-83
2023/06/26 06:32:57;;;;;;;;;;;26.10;99.90;;;;;;4978000;28;19933;-84
2023/06/26 06:35:23;;;;;;;;;;;26.30;96.50;;;;;;4978523;28;19934;-83
2023/06/26 06:37:49;;;;;;;;;;;26.50;95.40;;;;;;4976425;28;19929;-82
2023/06/26 06:40:14;;;;;;;;;;;26.50;92.60;;;;;;4980119;28;19926;-83
2023/06/26 06:42:40;;;;;;;;;;;26.20;95.00;;;;;;4978339;28;19925;-81
2023/06/26 06:45:06;;;;;;;;;;;25.70;93.10;;;;;;4978952;28;19926;-81
2023/06/26 06:47:32;;;;;;;;;;;25.30;93.60;;;;;;4978231;28;19933;-84
2023/06/26 06:49:58;;;;;;;;;;;25.40;95.40;;;;;;4961700;28;19930;-84
2023/06/26 06:52:24;;;;;;;;;;;25.80;96.40;;;;;;4978762;28;19926;-83
2023/06/26 06:54:58;;;;;;;;;;;26.20;96.50;;;;;;4983622;28;19926;-84
2023/06/26 06:57:24;;;;;;;;;;;26.30;93.80;;;;;;4959496;28;19961;-82
2023/06/26 06:59:50;;;;;;;;;;;25.90;94.80;;;;;;4993234;28;19925;-83
2023/06/26 07:02:18;;;;;;;;;;;25.50;95.10;;;;;;4983978;28;19929;-82
2023/06/26 07:04:44;;;;;;;;;;;25.00;96.10;;;;;;4996858;28;19998;-82
2023/06/26 07:07:09;;;;;;;;;;;24.50;97.00;;;;;;4963263;28;19945;-82
2023/06/26 07:09:36;;;;;;;;;;;24.50;98.50;;;;;;4982950;28;19937;-82
2023/06/26 07:12:02;;;;;;;;;;;24.90;97.40;;;;;;4993213;28;19957;-82
2023/06/26 07:14:28;;;;;;;;;;;25.50;97.30;;;;;;4962321;28;19930;-82
2023/06/26 07:16:53;;;;;;;;;;;26.10;95.00;;;;;;4975836;28;19937;-82
2023/06/26 07:19:19;;;;;;;;;;;26.60;95.00;;;;;;4979449;28;19932;-83
2023/06/26 07:21:46;;;;;;;;;;;27.00;94.00;;;;;;4977053;28;20021;-82
2023/06/26 07:24:11;;;;;;;;;;;27.30;94.60;;;;;;4984873;28;19948;-83
2023/06/26 07:26:38;;;;;;;;;;;27.30;93.10;;;;;;4968293;28;20401;-84
2023/06/26 07:29:04;;;;;;;;;;;27.00;92.90;;;;;;4965480;28;19933;-84
2023/06/26 07:31:29;;;;;;;;;;;26.50;94.00;;;;;;4997290;28;19933;-83
2023/06/26 07:33:55;;;;;;;;;;;26.10;93.70;;;;;;4974691;28;19992;-82
2023/06/26 07:36:21;;;;;;;;;;;25.80;94.90;;;;;;4965168;28;19925;-83
2023/06/26 07:38:46;;;;;;;;;;;25.40;94.00;;;;;;4977624;28;19930;-82
2023/06/26 07:41:12;;;;;;;;;;;25.10;94.50;;;;;;4975459;28;19937;-83
2023/06/26 07:43:37;;;;;;;;;;;25.20;94.70;;;;;;4975863;28;19993;-82
2023/06/26 07:46:03;;;;;;;;;;;25.40;95.40;;;;;;4957028;28;19937;-82
2023/06/26 07:48:28;;;;;;;;;;;25.80;94.20;;;;;;4956387;28;20356;-82
2023/06/26 07:50:54;;;;;;;;;;;26.30;91.40;;;;;;4958721;28;19936;-82
2023/06/26 07:53:20;;;;;;;;;;;26.80;90.40;;;;;;4978544;28;19930;-83
2023/06/26 07:55:45;;;;;;;;;;;27.20;90.30;;;;;;4962639;28;19926;-82
2023/06/26 07:58:11;;;;;;;;;;;27.40;89.60;;;;;;4987714;28;19930;-83
2023/06/26 08:00:37;;;;;;;;;;;27.60;86.00;;;;;;4993424;28;19993;-83
2023/06/26 08:03:03;;;;;;;;;;;27.80;83.20;;;;;;4991527;28;19981;-83
2023/06/26 08:05:28;;;;;;;;;;;27.90;82.30;;;;;;4994693;28;19934;-84
2023/06/26 08:07:54;;;;;;;;;;;27.90;84.90;;;;;;4983758;28;19933;-83
2023/06/26 08:10:20;;;;;;;;;;;27.70;82.70;;;;;;4962934;28;19964;-84
2023/06/26 08:12:46;;;;;;;;;;;27.40;85.10;;;;;;4996663;28;19965;-84
2023/06/26 08:15:12;;;;;;;;;;;27.00;86.30;;;;;;4969683;28;19926;-84
2023/06/26 08:17:38;;;;;;;;;;;26.60;88.00;;;;;;4995355;28;20016;-84
2023/06/26 08:20:04;;;;;;;;;;;26.10;88.50;;;;;;4983269;28;19926;-82
2023/06/26 08:22:30;;;;;;;;;;;25.70;90.80;;;;;;4982596;28;19930;-82
2023/06/26 08:24:55;;;;;;;;;;;25.20;90.90;;;;;;4995541;28;19933;-82
2023/06/26 08:27:21;;;;;;;;;;;25.00;92.10;;;;;;4999318;28;19930;-85
2023/06/26 08:29:46;;;;;;;;;;;25.20;93.20;;;;;;4981982;28;19925;-82
2023/06/26 08:32:12;;;;;;;;;;;25.80;92.60;;;;;;4980827;28;19926;-83
2023/06/26 08:34:38;;;;;;;;;;;26.30;92.50;;;;;;4976690;28;20049;-83
2023/06/26 08:37:03;;;;;;;;;;;26.50;89.50;;;;;;5002956;28;20012;-85
2023/06/26 08:39:29;;;;;;;;;;;26.30;90.30;;;;;;5004870;28;20373;-84
2023/06/26 08:41:55;;;;;;;;;;;25.80;89.50;;;;;;5028669;28;19929;-82
2023/06/26 08:44:24;;;;;;;;;;;25.80;91.30;;;;;;4988263;28;19933;-83
2023/06/26 08:46:50;;;;;;;;;;;26.20;92.00;;;;;;5018321;28;19979;-83
2023/06/26 08:49:19;;;;;;;;;;;26.70;90.90;;;;;;4988843;28;19960;-84
2023/06/26 08:51:49;;;;;;;;;;;26.50;90.30;;;;;;5012945;28;19975;-83
2023/06/26 08:54:15;;;;;;;;;;;26.10;90.10;;;;;;5005050;28;19932;-82
2023/06/26 08:56:42;;;;;;;;;;;25.90;90.70;;;;;;5003112;28;19980;-82
2023/06/26 08:59:10;;;;;;;;;;;26.00;90.80;;;;;;4998843;28;19933;-82
2023/06/26 09:01:36;;;;;;;;;;;26.30;92.00;;;;;;5012322;28;19936;-83
2023/06/26 09:04:02;;;;;;;;;;;26.50;92.10;;;;;;4982621;28;19929;-83
2023/06/26 09:06:27;;;;;;;;;;;26.70;90.60;;;;;;5020533;28;19935;-82
2023/06/26 09:08:53;;;;;;;;;;;26.80;89.60;;;;;;5008312;28;19929;-82
2023/06/26 09:11:19;;;;;;;;;;;26.50;90.50;;;;;;5008341;28;19929;-82
2023/06/26 09:13:47;;;;;;;;;;;26.30;90.30;;;;;;5003729;28;19925;-83
2023/06/26 09:16:12;;;;;;;;;;;25.90;90.40;;;;;;5025381;28;19948;-82
2023/06/26 09:18:40;;;;;;;;;;;25.60;90.70;;;;;;5005875;28;20594;-81
2023/06/26 09:21:09;;;;;;;;;;;25.70;91.70;;;;;;5001093;28;19925;-82
2023/06/26 09:23:35;;;;;;;;;;;25.70;91.20;;;;;;5007368;28;19936;-83
2023/06/26 09:26:05;;;;;;;;;;;25.70;91.30;;;;;;5022587;28;19929;-82
2023/06/26 09:28:31;;;;;;;;;;;26.00;91.70;;;;;;5005471;28;19925;-83
2023/06/26 09:31:00;;;;;;;;;;;26.40;92.50;;;;;;5002758;28;20392;-82
2023/06/26 09:33:26;;;;;;;;;;;26.60;90.90;;;;;;4997317;28;19931;-83
2023/06/26 09:35:52;;;;;;;;;;;26.70;88.80;;;;;;5004320;28;19957;-83
2023/06/26 09:38:18;;;;;;;;;;;26.40;89.00;;;;;;4999208;28;19933;-82
2023/06/26 09:40:44;;;;;;;;;;;26.50;88.70;;;;;;5002031;28;19925;-80
2023/06/26 09:43:12;;;;;;;;;;;26.50;88.60;;;;;;4973709;28;19926;-82
2023/06/26 09:45:39;;;;;;;;;;;26.50;88.00;;;;;;4981255;28;19961;-83
2023/06/26 09:48:05;;;;;;;;;;;26.50;87.40;;;;;;4999660;28;19929;-81
2023/06/26 09:50:33;;;;;;;;;;;26.60;87.20;;;;;;4982893;28;19988;-82
2023/06/26 09:53:18;;;;;;;;;;;26.80;89.10;;;;;;4985676;28;19964;-84
2023/06/26 09:55:44;;;;;;;;;;;26.80;84.20;;;;;;4997111;28;19930;-83
2023/06/26 09:58:14;;;;;;;;;;;26.90;86.20;;;;;;4984938;28;19933;-83
2023/06/26 10:00:43;;;;;;;;;;;26.60;84.60;;;;;;4984171;28;19949;-83
2023/06/26 10:03:12;;;;;;;;;;;26.30;86.30;;;;;;4999694;28;19936;-80
2023/06/26 10:05:39;;;;;;;;;;;25.70;84.70;;;;;;4999826;28;19948;-83
2023/06/26 10:08:05;;;;;;;;;;;25.50;86.20;;;;;;4984262;28;19932;-85
2023/06/26 10:10:31;;;;;;;;;;;25.70;87.10;;;;;;5001454;28;19930;-81
2023/06/26 10:13:02;;;;;;;;;;;26.00;87.80;;;;;;4980941;28;19926;-83
2023/06/26 10:15:28;;;;;;;;;;;26.30;86.90;;;;;;5000002;28;19926;-83
2023/06/26 10:17:56;;;;;;;;;;;26.40;81.90;;;;;;4976496;28;19926;-82
2023/06/26 10:20:21;;;;;;;;;;;26.50;82.40;;;;;;4997482;28;19926;-83
2023/06/26 10:22:47;;;;;;;;;;;26.60;82.00;;;;;;4963181;28;19926;-83
2023/06/26 10:25:16;;;;;;;;;;;26.70;82.80;;;;;;4983567;28;19937;-85
2023/06/26 10:27:43;;;;;;;;;;;27.00;84.70;;;;;;4989121;28;19929;-82
2023/06/26 10:30:11;;;;;;;;;;;27.40;82.30;;;;;;4982532;28;20005;-81
2023/06/26 10:32:36;;;;;;;;;;;27.60;79.30;;;;;;5014885;28;19926;-81
2023/06/26 10:35:03;;;;;;;;;;;27.20;78.70;;;;;;4965776;28;19929;-82
2023/06/26 10:37:44;;;;;;;;;;;27.00;80.40;;;;;;4982216;28;20044;-83
2023/06/26 10:40:10;;;;;;;;;;;26.80;81.60;;;;;;4994817;28;19977;-83
2023/06/26 10:42:37;;;;;;;;;;;26.70;81.60;;;;;;4998663;28;19980;-83
2023/06/26 10:45:10;;;;;;;;;;;26.70;79.30;;;;;;4997791;28;19930;-84
2023/06/26 10:47:36;;;;;;;;;;;26.70;76.90;;;;;;4993961;28;19926;-81
2023/06/26 10:50:23;;;;;;;;;;;26.90;80.30;;;;;;4983433;28;19937;-82
2023/06/26 10:53:07;;;;;;;;;;;26.80;78.10;;;;;;4983654;28;19933;-81
2023/06/26 10:55:32;;;;;;;;;;;26.60;77.10;;;;;;4978811;28;19926;-81
2023/06/26 10:57:58;;;;;;;;;;;26.60;74.40;;;;;;4992579;28;19976;-81
2023/06/26 11:00:24;;;;;;;;;;;26.50;75.80;;;;;;4983627;28;19926;-81
2023/06/26 11:02:52;;;;;;;;;;;26.50;78.40;;;;;;4965793;28;19926;-82
2023/06/26 11:05:28;;;;;;;;;;;26.30;77.10;;;;;;4998811;28;19941;-81
2023/06/26 11:08:03;;;;;;;;;;;25.70;74.50;;;;;;4999577;28;19937;-81
2023/06/26 11:10:29;;;;;;;;;;;25.50;76.50;;;;;;5000397;28;19941;-81
2023/06/26 11:12:57;;;;;;;;;;;25.60;76.90;;;;;;4966628;28;19930;-81
2023/06/26 11:15:24;;;;;;;;;;;25.70;78.00;;;;;;5001404;28;20328;-82
2023/06/26 11:17:50;;;;;;;;;;;25.80;76.20;;;;;;4999564;28;19925;-81
2023/06/26 11:20:16;;;;;;;;;;;25.80;75.90;;;;;;4983937;28;19949;-84
2023/06/26 11:22:42;;;;;;;;;;;25.70;76.70;;;;;;4996020;28;19925;-82
2023/06/26 11:25:08;;;;;;;;;;;25.60;76.80;;;;;;4996739;28;19926;-81
2023/06/26 11:27:41;;;;;;;;;;;25.70;77.80;;;;;;5000011;28;19948;-81
2023/06/26 11:30:08;;;;;;;;;;;26.00;76.60;;;;;;4998901;28;19933;-82
2023/06/26 11:32:34;;;;;;;;;;;26.20;75.50;;;;;;4983373;28;20373;-81
2023/06/26 11:35:00;;;;;;;;;;;26.20;75.10;;;;;;4978878;28;19929;-79
2023/06/26 11:37:26;;;;;;;;;;;26.30;75.90;;;;;;4982338;28;19925;-82
2023/06/26 11:39:51;;;;;;;;;;;26.40;75.50;;;;;;4966425;28;19925;-83
2023/06/26 11:42:17;;;;;;;;;;;26.40;73.40;;;;;;4981246;28;19926;-83
2023/06/26 11:44:43;;;;;;;;;;;26.40;70.50;;;;;;4999255;28;19934;-82
2023/06/26 11:47:16;;;;;;;;;;;26.40;71.80;;;;;;4981696;28;19925;-82
2023/06/26 11:49:42;;;;;;;;;;;26.40;71.30;;;;;;5011822;28;19953;-80
2023/06/26 11:52:08;;;;;;;;;;;26.50;73.30;;;;;;5011366;28;19989;-81
2023/06/26 11:54:36;;;;;;;;;;;26.70;72.80;;;;;;4996510;28;20251;-81
2023/06/26 11:57:02;;;;;;;;;;;26.70;69.50;;;;;;5001447;28;19925;-80
2023/06/26 11:59:35;;;;;;;;;;;26.70;70.00;;;;;;4990730;28;19976;-82
2023/06/26 12:02:04;;;;;;;;;;;26.90;71.10;;;;;;4981599;28;19960;-82
2023/06/26 12:04:30;;;;;;;;;;;26.90;67.80;;;;;;4998301;28;20397;-81
2023/06/26 12:06:57;;;;;;;;;;;26.70;69.80;;;;;;4980172;28;19933;-81
2023/06/26 12:09:22;;;;;;;;;;;26.40;69.70;;;;;;4977291;28;19926;-82
2023/06/26 12:11:51;;;;;;;;;;;26.30;70.30;;;;;;4999000;28;19930;-83
2023/06/26 12:14:19;;;;;;;;;;;26.30;69.00;;;;;;5016007;28;19969;-82
2023/06/26 12:16:44;;;;;;;;;;;26.20;69.00;;;;;;5015517;28;19930;-83
2023/06/26 12:19:10;;;;;;;;;;;26.00;68.20;;;;;;4998975;28;19936;-82
2023/06/26 12:21:44;;;;;;;;;;;25.80;68.10;;;;;;4996889;28;19991;-83
2023/06/26 12:24:13;;;;;;;;;;;25.80;69.90;;;;;;5002360;28;19932;-83
2023/06/26 12:26:41;;;;;;;;;;;25.80;68.80;;;;;;4992420;28;19953;-81
2023/06/26 12:29:07;;;;;;;;;;;25.90;70.50;;;;;;4996301;28;19964;-82
2023/06/26 12:31:33;;;;;;;;;;;26.10;71.40;;;;;;4982264;28;19941;-82
2023/06/26 12:33:59;;;;;;;;;;;26.10;69.40;;;;;;4998987;28;19936;-85
2023/06/26 12:36:25;;;;;;;;;;;26.10;65.60;;;;;;4982942;28;19926;-83
2023/06/26 12:38:52;;;;;;;;;;;26.10;68.00;;;;;;4982170;28;19926;-82
2023/06/26 12:41:20;;;;;;;;;;;26.00;67.90;;;;;;4981281;28;19930;-82
2023/06/26 12:43:45;;;;;;;;;;;25.90;69.10;;;;;;5002177;28;19926;-83
2023/06/26 12:46:11;;;;;;;;;;;26.00;70.20;;;;;;4967206;28;20378;-81
2023/06/26 12:48:46;;;;;;;;;;;26.00;70.20;;;;;;5015810;28;19925;-82
2023/06/26 12:51:16;;;;;;;;;;;26.00;70.60;;;;;;4986529;28;19965;-82
2023/06/26 12:53:42;;;;;;;;;;;26.10;71.50;;;;;;4973764;28;19930;-81
2023/06/26 12:56:08;;;;;;;;;;;26.10;69.80;;;;;;4968360;28;19940;-82
2023/06/26 12:58:34;;;;;;;;;;;26.00;69.50;;;;;;4999304;28;19925;-82
2023/06/26 13:01:02;;;;;;;;;;;26.00;69.50;;;;;;5002803;28;19976;-83
2023/06/26 13:03:28;;;;;;;;;;;25.90;68.60;;;;;;4999443;28;20688;-83
2023/06/26 13:05:54;;;;;;;;;;;25.80;68.30;;;;;;4980328;28;20028;-82
2023/06/26 13:08:19;;;;;;;;;;;25.80;66.60;;;;;;5001890;28;19926;-83
2023/06/26 13:10:45;;;;;;;;;;;25.70;66.60;;;;;;5002551;28;19930;-82
2023/06/26 13:13:10;;;;;;;;;;;25.50;67.20;;;;;;4998926;28;19925;-82
2023/06/26 13:15:36;;;;;;;;;;;25.40;68.70;;;;;;4969959;28;19973;-84
2023/06/26 13:18:02;;;;;;;;;;;25.40;69.70;;;;;;5002260;28;20238;-83
2023/06/26 13:20:27;;;;;;;;;;;25.50;70.60;;;;;;5002001;28;19929;-83
2023/06/26 13:22:54;;;;;;;;;;;25.70;72.10;;;;;;4982749;28;19930;-82
2023/06/26 13:25:20;;;;;;;;;;;25.70;71.70;;;;;;4981118;28;19968;-82
2023/06/26 13:27:45;;;;;;;;;;;25.70;69.80;;;;;;4998809;28;19953;-82
2023/06/26 13:30:11;;;;;;;;;;;25.50;69.00;;;;;;4995402;28;19926;-83
2023/06/26 13:32:37;;;;;;;;;;;25.50;70.40;;;;;;4982687;28;19929;-82
2023/06/26 13:35:03;;;;;;;;;;;25.40;71.00;;;;;;4965378;28;20326;-82
2023/06/26 13:37:29;;;;;;;;;;;25.40;70.60;;;;;;5012859;28;19968;-83
2023/06/26 13:39:54;;;;;;;;;;;25.30;68.10;;;;;;4971941;28;19929;-82
2023/06/26 13:42:20;;;;;;;;;;;25.20;70.40;;;;;;4982222;28;19972;-82
2023/06/26 13:44:46;;;;;;;;;;;25.10;70.40;;;;;;4993168;28;20013;-81
2023/06/26 13:47:12;;;;;;;;;;;25.00;71.10;;;;;;4961885;28;19950;-82
2023/06/26 13:49:38;;;;;;;;;;;24.90;72.70;;;;;;4994248;28;19940;-82
2023/06/26 13:52:04;;;;;;;;;;;24.90;72.50;;;;;;4964800;28;19930;-82
2023/06/26 13:54:29;;;;;;;;;;;24.80;72.70;;;;;;4955228;28;19926;-82
2023/06/26 13:56:57;;;;;;;;;;;24.70;72.10;;;;;;4985999;28;20024;-82
2023/06/26 13:59:25;;;;;;;;;;;24.60;72.60;;;;;;4999832;28;20016;-81
2023/06/26 14:01:51;;;;;;;;;;;24.60;72.70;;;;;;4984571;28;19932;-82
2023/06/26 14:04:16;;;;;;;;;;;24.70;72.40;;;;;;5001304;28;19973;-81
2023/06/26 14:06:42;;;;;;;;;;;24.70;70.80;;;;;;5015974;28;19926;-82
2023/06/26 14:09:08;;;;;;;;;;;24.70;70.80;;;;;;4967271;28;19925;-82
2023/06/26 14:11:33;;;;;;;;;;;24.80;69.80;;;;;;4999678;28;19981;-82
2023/06/26 14:13:59;;;;;;;;;;;24.70;70.80;;;;;;4964812;28;19926;-83